createdAt,value
2019-02-18T00:01:05.875Z,101802.03
2019-02-18T00:03:39.478Z,101810.39
2019-02-18T00:06:12.910Z,101812.42
2019-02-18T00:08:46.746Z,101806.77
2019-02-18T00:11:20.347Z,101804.81
2019-02-18T00:13:53.839Z,101807.94
2019-02-18T00:16:27.087Z,101809.80
2019-02-18T00:19:00.728Z,101804.30
2019-02-18T00:21:34.305Z,101803.67
2019-02-18T00:24:08.456Z,101806.17
2019-02-18T00:26:41.880Z,101810.17
2019-02-18T00:29:14.935Z,101803.61
2019-02-18T00:31:48.677Z,101809.70
2019-02-18T00:34:22.735Z,101803.88
2019-02-18T00:36:55.978Z,101806.66
2019-02-18T00:39:29.538Z,101801.95
2019-02-18T00:42:03.240Z,101800.58
2019-02-18T00:44:36.626Z,101801.98
2019-02-18T00:47:09.707Z,101798.63
2019-02-18T00:49:43.248Z,101793.95
2019-02-18T00:52:15.737Z,101793.60
2019-02-18T00:54:49.007Z,101802.69
2019-02-18T00:57:37.433Z,101803.20
2019-02-18T01:00:11.669Z,101797.75
2019-02-18T01:02:44.790Z,101799.77
2019-02-18T01:05:28.255Z,101800.63
2019-02-18T01:08:02.127Z,101800.70
2019-02-18T01:10:34.917Z,101804.41
2019-02-18T01:13:08.049Z,101805.66
2019-02-18T01:15:50.495Z,101797.70
2019-02-18T01:18:24.299Z,101798.98
2019-02-18T01:21:06.576Z,101795.41
2019-02-18T01:23:39.801Z,101802.31
2019-02-18T01:26:12.934Z,101795.64
2019-02-18T01:28:55.670Z,101800.27
2019-02-18T01:31:39.095Z,101802.58
2019-02-18T01:34:12.628Z,101803.50
2019-02-18T01:36:46.008Z,101799.03
2019-02-18T01:39:28.150Z,101802.80
2019-02-18T01:42:13.766Z,101802.17
2019-02-18T01:44:55.071Z,101800.59
2019-02-18T01:47:37.449Z,101803.34
2019-02-18T01:50:20.594Z,101804.82
2019-02-18T01:53:03.711Z,101807.77
2019-02-18T01:55:38.429Z,101801.83
2019-02-18T01:58:11.429Z,101796.03
2019-02-18T02:00:44.957Z,101797.20
2019-02-18T02:03:18.774Z,101793.17
2019-02-18T02:05:52.492Z,101791.23
2019-02-18T02:08:26.533Z,101788.58
2019-02-18T02:11:08.968Z,101786.13
2019-02-18T02:13:42.193Z,101791.45
2019-02-18T02:16:15.657Z,101787.83
2019-02-18T02:18:49.625Z,101789.16
2019-02-18T02:21:23.741Z,101783.86
2019-02-18T02:24:06.300Z,101784.66
2019-02-18T02:26:40.087Z,101783.86
2019-02-18T02:29:13.692Z,101786.11
2019-02-18T02:31:47.411Z,101785.13
2019-02-18T02:34:29.703Z,101783.00
2019-02-18T02:37:03.227Z,101788.36
2019-02-18T02:39:36.992Z,101783.26
2019-02-18T02:42:11.209Z,101787.78
2019-02-18T02:44:59.560Z,101780.44
2019-02-18T02:47:33.099Z,101784.01
2019-02-18T02:50:06.873Z,101781.51
2019-02-18T02:52:40.725Z,101778.86
2019-02-18T02:55:23.287Z,101782.23
2019-02-18T02:57:57.546Z,101778.52
2019-02-18T03:00:31.310Z,101781.38
2019-02-18T03:03:05.324Z,101778.86
2019-02-18T03:05:38.981Z,101779.86
2019-02-18T03:08:20.377Z,101781.11
2019-02-18T03:10:47.868Z,101783.76
2019-02-18T03:13:21.125Z,101785.66
2019-02-18T03:15:54.379Z,101778.28
2019-02-18T03:18:28.763Z,101777.20
2019-02-18T03:21:02.487Z,101785.06
2019-02-18T03:23:36.148Z,101787.50
2019-02-18T03:26:09.537Z,101787.91
2019-02-18T03:29:09.447Z,101785.05
2019-02-18T03:31:54.559Z,101784.20
2019-02-18T03:34:43.779Z,101783.88
2019-02-18T03:37:26.218Z,101782.55
2019-02-18T03:39:59.500Z,101777.93
2019-02-18T03:42:33.124Z,101781.23
2019-02-18T03:45:06.299Z,101784.55
2019-02-18T03:47:39.824Z,101781.38
2019-02-18T03:50:12.905Z,101774.01
2019-02-18T03:52:56.463Z,101777.20
2019-02-18T03:55:38.902Z,101775.73
2019-02-18T03:58:12.324Z,101777.45
2019-02-18T04:00:45.414Z,101771.36
2019-02-18T04:03:29.290Z,101766.77
2019-02-18T04:06:14.277Z,101778.98
2019-02-18T04:08:48.123Z,101781.45
2019-02-18T04:11:37.050Z,101771.66
2019-02-18T04:14:19.572Z,101777.66
2019-02-18T04:16:52.937Z,101774.00
2019-02-18T04:19:25.447Z,101772.27
2019-02-18T04:22:09.015Z,101772.63
2019-02-18T04:24:42.250Z,101782.25
2019-02-18T04:27:24.747Z,101774.95
2019-02-18T04:30:07.185Z,101775.46
2019-02-18T04:32:41.310Z,101786.11
2019-02-18T04:35:23.960Z,101789.73
2019-02-18T04:38:07.644Z,101785.47
2019-02-18T04:40:41.864Z,101782.00
2019-02-18T04:43:15.611Z,101775.48
2019-02-18T04:45:49.623Z,101771.72
2019-02-18T04:48:23.991Z,101776.05
2019-02-18T04:50:57.718Z,101770.03
2019-02-18T04:53:31.484Z,101779.81
2019-02-18T04:56:06.820Z,101782.20
2019-02-18T04:58:40.689Z,101768.87
2019-02-18T05:01:14.551Z,101770.19
2019-02-18T05:03:57.098Z,101767.39
2019-02-18T05:06:30.590Z,101776.45
2019-02-18T05:09:05.951Z,101780.36
2019-02-18T05:11:40.017Z,101776.52
2019-02-18T05:14:21.961Z,101766.00
2019-02-18T05:16:55.495Z,101763.88
2019-02-18T05:19:28.601Z,101764.08
2019-02-18T05:22:11.027Z,101755.42
2019-02-18T05:24:53.929Z,101763.94
2019-02-18T05:27:36.744Z,101760.67
2019-02-18T05:30:18.935Z,101767.50
2019-02-18T05:32:52.717Z,101766.83
2019-02-18T05:35:25.829Z,101763.97
2019-02-18T05:37:59.186Z,101759.09
2019-02-18T05:40:41.407Z,101756.70
2019-02-18T05:43:14.329Z,101754.91
2019-02-18T05:45:48.217Z,101759.80
2019-02-18T05:48:21.561Z,101757.91
2019-02-18T05:50:54.625Z,101766.00
2019-02-18T05:53:37.385Z,101770.09
2019-02-18T05:56:19.819Z,101764.38
2019-02-18T05:58:53.036Z,101768.70
2019-02-18T06:01:27.070Z,101762.38
2019-02-18T06:04:01.181Z,101763.41
2019-02-18T06:06:43.749Z,101770.09
2019-02-18T06:09:30.077Z,101766.20
2019-02-18T06:12:13.954Z,101766.62
2019-02-18T06:14:47.164Z,101782.70
2019-02-18T06:17:20.640Z,101775.38
2019-02-18T06:19:54.045Z,101782.34
2019-02-18T06:22:26.775Z,101778.91
2019-02-18T06:25:00.641Z,101778.23
2019-02-18T06:27:42.719Z,101775.58
2019-02-18T06:30:16.242Z,101772.73
2019-02-18T06:32:50.163Z,101775.38
2019-02-18T06:35:24.519Z,101777.56
2019-02-18T06:38:06.732Z,101776.09
2019-02-18T06:40:40.133Z,101780.32
2019-02-18T06:43:13.218Z,101784.44
2019-02-18T06:45:52.110Z,101784.80
2019-02-18T06:48:31.189Z,101782.14
2019-02-18T06:51:17.576Z,101786.32
2019-02-18T06:53:51.415Z,101785.26
2019-02-18T06:56:43.253Z,101786.37
2019-02-18T06:59:22.052Z,101787.23
2019-02-18T07:02:14.109Z,101777.27
2019-02-18T07:05:29.821Z,101785.11
2019-02-18T07:08:57.114Z,101793.35
2019-02-18T07:11:44.349Z,101795.23
2019-02-18T07:14:18.769Z,101797.02
2019-02-18T07:16:52.147Z,101797.78
2019-02-18T07:19:25.242Z,101801.70
2019-02-18T07:22:07.042Z,101798.60
2019-02-18T07:24:40.229Z,101799.31
2019-02-18T07:27:14.039Z,101793.36
2019-02-18T07:29:47.653Z,101797.80
2019-02-18T07:32:21.151Z,101798.50
2019-02-18T07:34:54.977Z,101798.65
2019-02-18T07:37:28.784Z,101800.89
2019-02-18T07:40:03.315Z,101805.12
2019-02-18T07:42:45.408Z,101796.72
2019-02-18T07:45:18.866Z,101802.10
2019-02-18T07:47:52.300Z,101804.75
2019-02-18T07:50:26.051Z,101805.50
2019-02-18T07:52:59.985Z,101803.88
2019-02-18T07:55:33.754Z,101801.30
2019-02-18T07:58:16.242Z,101796.33
2019-02-18T08:00:49.349Z,101796.53
2019-02-18T08:03:32.799Z,101787.09
2019-02-18T08:06:06.342Z,101788.77
2019-02-18T08:08:40.071Z,101787.37
2019-02-18T08:11:17.274Z,101783.38
2019-02-18T08:13:54.795Z,101786.45
2019-02-18T08:16:38.710Z,101776.25
2019-02-18T08:19:21.561Z,101773.02
2019-02-18T08:21:54.833Z,101776.22
2019-02-18T08:24:27.998Z,101776.48
2019-02-18T08:27:02.544Z,101781.05
2019-02-18T08:29:45.183Z,101776.75
2019-02-18T08:32:27.214Z,101773.04
2019-02-18T08:35:00.693Z,101769.92
2019-02-18T08:37:35.095Z,101768.98
2019-02-18T08:40:22.466Z,101765.80
2019-02-18T08:42:52.510Z,101766.48
2019-02-18T08:45:27.329Z,101766.16
2019-02-18T08:48:01.067Z,101769.05
2019-02-18T08:50:34.800Z,101775.23
2019-02-18T08:53:08.197Z,101763.93
2019-02-18T08:55:41.766Z,101757.45
2019-02-18T08:58:15.200Z,101764.77
2019-02-18T09:00:48.711Z,101758.25
2019-02-18T09:03:31.203Z,101757.56
2019-02-18T09:06:16.730Z,101748.79
2019-02-18T09:08:49.823Z,101750.41
2019-02-18T09:11:23.385Z,101728.97
2019-02-18T09:13:57.073Z,101728.87
2019-02-18T09:16:30.861Z,101728.84
2019-02-18T09:19:03.996Z,101728.22
2019-02-18T09:21:37.565Z,101728.38
2019-02-18T09:24:21.453Z,101727.30
2019-02-18T09:26:54.606Z,101729.67
2019-02-18T09:29:28.079Z,101731.54
2019-02-18T09:32:01.597Z,101734.31
2019-02-18T09:34:36.400Z,101736.22
2019-02-18T09:37:18.645Z,101732.97
2019-02-18T09:39:52.490Z,101734.20
2019-02-18T09:42:35.079Z,101725.02
2019-02-18T09:45:08.789Z,101726.83
2019-02-18T09:47:41.893Z,101723.43
2019-02-18T09:50:15.973Z,101720.57
2019-02-18T09:52:49.425Z,101725.84
2019-02-18T09:55:32.340Z,101724.69
2019-02-18T09:58:06.209Z,101727.68
2019-02-18T10:00:39.236Z,101722.07
2019-02-18T10:03:12.339Z,101717.28
2019-02-18T10:05:46.228Z,101719.13
2019-02-18T10:08:19.671Z,101716.01
2019-02-18T10:10:56.124Z,101716.48
2019-02-18T10:13:29.303Z,101714.45
2019-02-18T10:16:02.419Z,101706.36
2019-02-18T10:18:45.739Z,101700.32
2019-02-18T10:21:19.153Z,101703.52
2019-02-18T10:23:52.261Z,101698.09
2019-02-18T10:26:26.095Z,101700.91
2019-02-18T10:28:59.508Z,101696.33
2019-02-18T10:31:33.327Z,101691.00
2019-02-18T10:34:06.647Z,101690.69
2019-02-18T10:36:40.119Z,101694.22
2019-02-18T10:39:13.326Z,101692.39
2019-02-18T10:41:56.363Z,101691.14
2019-02-18T10:44:38.560Z,101689.28
2019-02-18T10:47:12.330Z,101674.37
2019-02-18T10:49:54.924Z,101676.09
2019-02-18T10:52:28.119Z,101670.80
2019-02-18T10:55:01.218Z,101664.08
2019-02-18T10:57:43.512Z,101657.02
2019-02-18T11:00:17.022Z,101652.92
2019-02-18T11:02:50.897Z,101649.31
2019-02-18T11:05:33.561Z,101639.67
2019-02-18T11:08:06.688Z,101638.09
2019-02-18T11:10:39.807Z,101635.92
2019-02-18T11:13:22.054Z,101631.83
2019-02-18T11:15:55.284Z,101634.16
2019-02-18T11:18:28.750Z,101631.34
2019-02-18T11:21:01.973Z,101630.64
2019-02-18T11:23:36.106Z,101620.36
2019-02-18T11:26:09.738Z,101624.56
2019-02-18T11:28:43.041Z,101617.91
2019-02-18T11:31:16.802Z,101618.73
2019-02-18T11:33:50.553Z,101613.80
2019-02-18T11:36:23.707Z,101603.70
2019-02-18T11:38:57.154Z,101600.03
2019-02-18T11:41:30.929Z,101592.52
2019-02-18T11:44:04.557Z,101584.87
2019-02-18T11:46:38.319Z,101579.61
2019-02-18T11:49:11.452Z,101584.09
2019-02-18T11:51:55.879Z,101574.28
2019-02-18T11:54:29.002Z,101582.98
2019-02-18T11:57:11.865Z,101581.94
2019-02-18T11:59:54.395Z,101577.78
2019-02-18T12:02:27.885Z,101581.12
2019-02-18T12:05:01.093Z,101581.93
2019-02-18T12:07:34.198Z,101571.38
2019-02-18T12:10:16.479Z,101577.84
2019-02-18T12:12:50.315Z,101582.20
2019-02-18T12:15:32.771Z,101572.45
2019-02-18T12:18:06.633Z,101579.20
2019-02-18T12:20:48.899Z,101574.82
2019-02-18T12:23:22.022Z,101563.63
2019-02-18T12:25:55.111Z,101564.80
2019-02-18T12:28:37.455Z,101554.80
2019-02-18T12:31:20.294Z,101542.91
2019-02-18T12:33:54.105Z,101541.22
2019-02-18T12:36:27.225Z,101537.05
2019-02-18T12:39:01.003Z,101529.69
2019-02-18T12:41:34.447Z,101527.09
2019-02-18T12:44:08.003Z,101525.70
2019-02-18T12:46:41.721Z,101514.70
2019-02-18T12:49:15.182Z,101520.53
2019-02-18T12:51:49.223Z,101515.70
2019-02-18T12:54:23.607Z,101507.31
2019-02-18T12:57:06.665Z,101507.03
2019-02-18T12:59:40.194Z,101503.64
2019-02-18T13:02:13.510Z,101503.09
2019-02-18T13:04:46.982Z,101493.95
2019-02-18T13:07:20.420Z,101494.90
2019-02-18T13:09:53.943Z,101497.91
2019-02-18T13:12:39.543Z,101486.81
2019-02-18T13:15:13.228Z,101482.50
2019-02-18T13:17:46.622Z,101480.72
2019-02-18T13:20:21.914Z,101483.43
2019-02-18T13:22:55.359Z,101476.98
2019-02-18T13:25:28.498Z,101471.06
2019-02-18T13:28:08.302Z,101465.72
2019-02-18T13:30:37.155Z,101461.77
2019-02-18T13:33:10.586Z,101459.25
2019-02-18T13:35:44.219Z,101457.64
2019-02-18T13:38:26.420Z,101453.67
2019-02-18T13:40:59.579Z,101443.78
2019-02-18T13:43:33.349Z,101456.06
2019-02-18T13:46:06.856Z,101452.39
2019-02-18T13:48:40.868Z,101449.20
2019-02-18T13:51:14.314Z,101452.78
2019-02-18T13:53:48.889Z,101445.97
2019-02-18T13:56:22.291Z,101447.07
2019-02-18T13:58:55.692Z,101443.96
2019-02-18T14:01:37.624Z,101435.86
2019-02-18T14:04:11.616Z,101435.02
2019-02-18T14:06:45.531Z,101433.31
2019-02-18T14:09:34.164Z,101427.17
2019-02-18T14:12:15.695Z,101417.91
2019-02-18T14:14:51.700Z,101427.41
2019-02-18T14:17:24.962Z,101425.37
2019-02-18T14:19:58.481Z,101419.95
2019-02-18T14:22:31.989Z,101422.40
2019-02-18T14:25:05.827Z,101420.52
2019-02-18T14:27:39.389Z,101421.98
2019-02-18T14:30:22.667Z,101420.95
2019-02-18T14:32:55.784Z,101419.36
2019-02-18T14:35:29.410Z,101420.33
2019-02-18T14:38:03.123Z,101424.58
2019-02-18T14:40:36.375Z,101421.25
2019-02-18T14:43:10.398Z,101428.80
2019-02-18T14:45:44.136Z,101420.11
2019-02-18T14:48:18.039Z,101418.98
2019-02-18T14:50:56.614Z,101416.53
2019-02-18T14:53:42.322Z,101412.75
2019-02-18T14:56:24.661Z,101409.89
2019-02-18T14:58:57.776Z,101407.15
2019-02-18T15:01:31.340Z,101407.95
2019-02-18T15:04:05.445Z,101405.68
2019-02-18T15:06:39.271Z,101400.26
2019-02-18T15:09:12.416Z,101395.94
2019-02-18T15:11:46.294Z,101401.28
2019-02-18T15:14:19.885Z,101394.91
2019-02-18T15:16:53.146Z,101385.85
2019-02-18T15:19:26.326Z,101386.36
2019-02-18T15:22:08.576Z,101388.52
2019-02-18T15:24:42.313Z,101379.38
2019-02-18T15:27:24.863Z,101379.21
2019-02-18T15:29:58.581Z,101377.70
2019-02-18T15:32:32.425Z,101376.34
2019-02-18T15:35:15.949Z,101369.41
2019-02-18T15:37:51.637Z,101361.62
2019-02-18T15:40:24.794Z,101362.70
2019-02-18T15:42:58.307Z,101363.83
2019-02-18T15:45:31.712Z,101360.38
2019-02-18T15:48:06.035Z,101358.39
2019-02-18T15:50:39.537Z,101354.25
2019-02-18T15:53:13.361Z,101350.12
2019-02-18T15:55:46.821Z,101355.01
2019-02-18T15:58:20.218Z,101346.01
2019-02-18T16:00:53.676Z,101339.25
2019-02-18T16:03:27.074Z,101344.16
2019-02-18T16:06:00.572Z,101338.87
2019-02-18T16:08:36.805Z,101341.78
2019-02-18T16:11:25.225Z,101336.38
2019-02-18T16:13:58.330Z,101340.40
2019-02-18T16:16:32.356Z,101337.48
2019-02-18T16:19:05.467Z,101332.30
2019-02-18T16:21:38.888Z,101325.95
2019-02-18T16:24:21.125Z,101329.04
2019-02-18T16:26:53.922Z,101322.77
2019-02-18T16:29:27.432Z,101328.02
2019-02-18T16:32:01.363Z,101333.42
2019-02-18T16:34:34.678Z,101323.84
2019-02-18T16:37:08.568Z,101324.87
2019-02-18T16:39:42.025Z,101330.71
2019-02-18T16:42:15.792Z,101324.39
2019-02-18T16:44:49.197Z,101324.83
2019-02-18T16:47:22.355Z,101326.88
2019-02-18T16:49:55.793Z,101328.91
2019-02-18T16:52:38.451Z,101327.72
2019-02-18T16:55:12.129Z,101323.30
2019-02-18T16:57:56.884Z,101317.34
2019-02-18T17:00:34.182Z,101315.28
2019-02-18T17:03:07.303Z,101318.30
2019-02-18T17:05:40.852Z,101314.11
2019-02-18T17:08:14.411Z,101317.28
2019-02-18T17:10:47.835Z,101313.28
2019-02-18T17:13:21.551Z,101314.51
2019-02-18T17:15:55.345Z,101308.84
2019-02-18T17:18:39.827Z,101310.31
2019-02-18T17:21:22.045Z,101306.84
2019-02-18T17:23:56.088Z,101307.03
2019-02-18T17:26:29.529Z,101303.64
2019-02-18T17:29:02.821Z,101295.48
2019-02-18T17:31:36.668Z,101295.91
2019-02-18T17:34:19.570Z,101295.59
2019-02-18T17:36:53.307Z,101291.47
2019-02-18T17:39:26.629Z,101290.73
2019-02-18T17:41:59.888Z,101278.15
2019-02-18T17:44:33.647Z,101277.83
2019-02-18T17:47:07.118Z,101279.98
2019-02-18T17:49:41.072Z,101272.05
2019-02-18T17:52:14.462Z,101272.16
2019-02-18T17:54:48.114Z,101275.84
2019-02-18T17:57:21.288Z,101271.28
2019-02-18T17:59:53.720Z,101267.14
2019-02-18T18:02:27.491Z,101268.48
2019-02-18T18:05:01.085Z,101268.25
2019-02-18T18:07:34.929Z,101265.48
2019-02-18T18:10:10.629Z,101264.20
2019-02-18T18:12:44.204Z,101261.55
2019-02-18T18:15:26.298Z,101260.84
2019-02-18T18:18:00.166Z,101263.06
2019-02-18T18:20:33.964Z,101261.00
2019-02-18T18:23:16.163Z,101262.43
2019-02-18T18:25:49.753Z,101260.92
2019-02-18T18:31:12.737Z,101263.70
2019-02-18T18:33:47.192Z,101267.31
2019-02-18T18:46:55.650Z,101254.78
2019-02-18T18:49:48.432Z,101258.78
2019-02-18T18:52:22.528Z,101262.28
2019-02-18T18:54:56.691Z,101258.41
2019-02-18T18:57:41.252Z,101259.05
2019-02-18T19:00:16.765Z,101260.81
2019-02-18T19:03:04.483Z,101252.16
2019-02-18T19:05:38.288Z,101264.32
2019-02-18T19:08:12.330Z,101256.23
2019-02-18T19:11:04.594Z,101259.63
2019-02-18T19:13:49.172Z,101257.46
2019-02-18T19:16:22.978Z,101251.23
2019-02-18T19:18:56.731Z,101252.88
2019-02-18T19:21:33.264Z,101257.94
2019-02-18T19:24:06.853Z,101252.54
2019-02-18T19:26:40.928Z,101254.56
2019-02-18T19:29:37.662Z,101256.61
2019-02-18T19:32:12.552Z,101250.68
2019-02-18T19:35:07.223Z,101251.04
2019-02-18T19:37:41.358Z,101251.41
2019-02-18T19:40:16.940Z,101242.91
2019-02-18T19:42:50.766Z,101245.77
2019-02-18T19:45:37.631Z,101248.62
2019-02-18T19:48:11.726Z,101258.13
2019-02-18T19:51:09.079Z,101256.55
2019-02-18T19:53:50.280Z,101253.85
2019-02-18T19:56:37.349Z,101246.72
2019-02-18T19:59:11.343Z,101245.89
2019-02-18T20:01:56.580Z,101239.47
2019-02-18T20:04:41.574Z,101238.91
2019-02-18T20:07:32.835Z,101237.66
2019-02-18T20:10:07.337Z,101234.14
2019-02-18T20:12:40.767Z,101231.88
2019-02-18T20:15:14.741Z,101233.45
2019-02-18T20:17:49.267Z,101238.17
2019-02-18T20:20:21.948Z,101240.73
2019-02-18T20:23:07.587Z,101238.69
2019-02-18T20:25:42.041Z,101236.16
2019-02-18T20:28:16.005Z,101235.55
2019-02-18T20:30:49.626Z,101227.79
2019-02-18T20:33:23.685Z,101228.80
2019-02-18T20:35:57.455Z,101232.09
2019-02-18T20:38:43.820Z,101227.23
2019-02-18T20:41:37.514Z,101229.04
2019-02-18T20:44:11.426Z,101220.50
2019-02-18T20:46:44.575Z,101229.67
2019-02-18T20:49:17.828Z,101228.88
2019-02-18T20:51:51.544Z,101233.82
2019-02-18T20:54:25.446Z,101225.20
2019-02-18T20:56:59.418Z,101226.77
2019-02-18T20:59:33.307Z,101225.20
2019-02-18T21:02:25.565Z,101217.22
2019-02-18T21:05:19.868Z,101216.08
2019-02-18T21:08:04.978Z,101213.17
2019-02-18T21:10:50.481Z,101218.64
2019-02-18T21:13:40.816Z,101217.93
2019-02-18T21:16:16.212Z,101219.41
2019-02-18T21:19:07.928Z,101215.02
2019-02-18T21:21:43.493Z,101215.91
2019-02-18T21:24:17.346Z,101217.56
2019-02-18T21:26:51.643Z,101222.73
2019-02-18T21:29:26.375Z,101218.11
2019-02-18T21:32:11.743Z,101218.56
2019-02-18T21:34:57.977Z,101220.67
2019-02-18T21:37:49.637Z,101211.58
2019-02-18T21:40:34.709Z,101205.26
2019-02-18T21:43:08.698Z,101206.55
2019-02-18T21:45:42.904Z,101202.85
2019-02-18T21:48:18.096Z,101197.09
2019-02-18T21:50:52.335Z,101199.27
2019-02-18T21:53:26.858Z,101195.83
2019-02-18T21:56:02.778Z,101198.86
2019-02-18T21:58:36.526Z,101199.75
2019-02-18T22:01:10.629Z,101199.23
2019-02-18T22:03:46.412Z,101199.52
2019-02-18T22:09:20.891Z,101194.72
2019-02-18T22:12:11.671Z,101194.34
2019-02-18T22:14:45.885Z,101194.28
2019-02-18T22:17:19.371Z,101197.42
2019-02-18T22:19:52.809Z,101195.80
2019-02-18T22:22:27.162Z,101194.20
2019-02-18T22:25:12.772Z,101194.28
2019-02-18T22:27:46.359Z,101198.60
2019-02-18T22:30:19.902Z,101200.56
2019-02-18T22:32:54.517Z,101195.31
2019-02-18T22:35:28.349Z,101196.64
2019-02-18T22:38:02.241Z,101192.98
2019-02-18T22:40:35.539Z,101189.54
2019-02-18T22:43:08.700Z,101189.69
2019-02-18T22:45:42.332Z,101183.25
2019-02-18T22:48:15.606Z,101176.85
2019-02-18T22:51:08.958Z,101171.32
2019-02-18T22:53:43.270Z,101178.33
2019-02-18T22:56:15.985Z,101186.25
2019-02-18T22:58:50.167Z,101184.10
2019-02-18T23:01:42.731Z,101182.13
2019-02-18T23:04:16.194Z,101182.13
2019-02-18T23:06:50.399Z,101177.84
2019-02-18T23:09:25.265Z,101183.38
2019-02-18T23:11:59.392Z,101191.72
2019-02-18T23:14:50.277Z,101188.36
2019-02-18T23:17:20.639Z,101189.02
2019-02-18T23:19:54.106Z,101186.77
2019-02-18T23:22:46.088Z,101185.97
2019-02-18T23:25:31.810Z,101193.25
2019-02-18T23:28:03.948Z,101188.26
2019-02-18T23:30:52.148Z,101188.95
2019-02-18T23:33:37.382Z,101188.99
2019-02-18T23:36:21.763Z,101193.54
2019-02-18T23:39:07.681Z,101193.06
2019-02-18T23:41:59.137Z,101195.87
2019-02-18T23:44:32.720Z,101192.95
2019-02-18T23:47:05.869Z,101194.91
2019-02-18T23:49:39.618Z,101193.88
2019-02-18T23:52:13.597Z,101188.30
2019-02-18T23:54:47.391Z,101181.23
2019-02-18T23:57:35.357Z,101178.05
